Time;durP1;ratioP1;P1;durP2;ratioP2;P2;SDS_P1;SDS_P2;PMS_P1;PMS_P2;Temp;Humidity;BMP_temperature;BMP_pressure;BME280_temperature;BME280_humidity;BME280_pressure;Samples;Min_cycle;Max_cycle;Signal;HPM_P1;HPM_P2
2022/06/01 01:51:07;;;;;;;37.10;24.48;;;;;;;16.76;74.55;100378.53;5030534;28;20064;-61
2022/06/01 01:53:33;;;;;;;42.92;26.20;;;;;;;16.77;74.73;100378.38;5030694;28;20025;-57
2022/06/01 01:56:21;;;;;;;42.80;27.02;;;;;;;16.89;74.67;100370.91;5030733;28;20072;-58
2022/06/01 01:59:01;;;;;;;41.78;25.48;;;;;;;16.83;74.33;100366.09;5031465;28;20033;-59
2022/06/01 02:01:59;;;;;;;39.05;25.55;;;;;;;16.97;74.47;100372.84;5031026;28;20041;-61
2022/06/01 02:07:37;;;;;;;40.78;26.35;;;;;;;16.93;74.23;100366.03;5030505;28;20033;-61
2022/06/01 02:12:47;;;;;;;42.42;26.67;;;;;;;16.85;74.35;100358.69;5030753;28;20049;-58
2022/06/01 03:15:30;;;;;;;37.90;26.80;;;;;;;20.64;60.41;100362.13;5021078;28;20480;-58
2022/06/01 03:17:56;;;;;;;37.15;28.98;;;;;;;20.95;58.96;100360.44;5033895;28;20038;-58
2022/06/01 03:20:24;;;;;;;33.22;27.38;;;;;;;21.25;58.03;100365.19;5033110;28;20035;-59
2022/06/01 03:22:50;;;;;;;34.20;25.77;;;;;;;21.74;57.17;100355.81;5031374;28;20025;-59
2022/06/01 03:25:18;;;;;;;29.35;24.48;;;;;;;22.28;55.28;100351.19;5033571;28;20420;-56
2022/06/01 03:27:44;;;;;;;26.23;23.27;;;;;;;22.75;53.44;100360.84;5033970;28;20036;-59
2022/06/01 03:30:12;;;;;;;26.13;22.40;;;;;;;23.22;51.70;100363.25;5033729;28;20076;-60
2022/06/01 03:32:38;;;;;;;25.17;22.33;;;;;;;23.61;50.41;100356.50;5033503;28;20030;-60
2022/06/01 03:35:06;;;;;;;23.30;20.15;;;;;;;23.86;49.06;100367.00;5033630;28;20047;-60
2022/06/01 03:37:31;;;;;;;21.38;19.08;;;;;;;24.16;48.11;100363.25;5033189;28;20037;-59
2022/06/01 03:39:57;;;;;;;17.90;15.75;;;;;;;24.58;45.87;100361.38;5065558;28;20492;-59
2022/06/01 03:42:23;;;;;;;18.20;16.08;;;;;;;25.18;44.35;100362.69;5064438;28;20068;-61
2022/06/01 03:47:38;;;;;;;15.85;14.00;;;;;;;26.72;41.18;100358.97;5032185;28;20121;-60
2022/06/01 03:50:04;;;;;;;15.05;12.32;;;;;;;27.15;39.42;100362.16;5017869;28;20032;-61
2022/06/01 03:52:30;;;;;;;19.45;14.38;;;;;;;27.76;38.32;100357.94;5029247;28;20029;-61
2022/06/01 03:54:55;;;;;;;17.58;13.45;;;;;;;28.13;37.35;100362.66;5033535;28;20044;-59
2022/06/01 03:57:21;;;;;;;13.85;11.57;;;;;;;28.60;36.24;100351.16;5033394;28;20073;-59
2022/06/01 03:59:47;;;;;;;12.50;10.32;;;;;;;29.15;35.02;100356.81;5032462;28;20061;-61
2022/06/01 04:02:12;;;;;;;10.77;9.20;;;;;;;29.70;33.65;100352.19;5030335;28;20080;-60
2022/06/01 04:04:38;;;;;;;10.80;7.95;;;;;;;30.08;32.64;100351.72;5032829;28;20041;-59
2022/06/01 04:07:04;;;;;;;8.82;7.93;;;;;;;30.53;31.74;100348.53;5032818;28;20113;-59
2022/06/01 04:09:29;;;;;;;9.30;7.68;;;;;;;30.77;30.38;100346.56;5032657;28;20367;-59
2022/06/01 04:11:56;;;;;;;8.20;7.28;;;;;;;30.72;30.86;100351.97;5032860;28;20087;-61
2022/06/01 04:14:23;;;;;;;7.53;6.68;;;;;;;30.93;30.27;100344.94;5033187;28;20114;-60
2022/06/01 04:16:48;;;;;;;6.72;6.03;;;;;;;30.98;29.73;100344.16;5032824;28;20477;-59
2022/06/01 04:19:14;;;;;;;8.50;7.03;;;;;;;30.33;31.07;100345.09;5032669;28;20064;-61
2022/06/01 04:21:43;;;;;;;9.98;7.18;;;;;;;29.60;32.06;100356.34;5033088;28;20473;-60
2022/06/01 04:24:12;;;;;;;7.20;6.00;;;;;;;29.21;32.69;100345.69;5032639;28;20033;-59
2022/06/01 04:26:38;;;;;;;8.63;6.45;;;;;;;28.98;31.95;100327.16;5032787;28;20033;-62
2022/06/01 04:29:04;;;;;;;5.80;5.30;;;;;;;29.89;30.21;100347.38;5031519;28;20444;-60
2022/06/01 04:31:30;;;;;;;7.28;6.10;;;;;;;30.58;29.24;100345.84;5032580;28;20029;-60
2022/06/01 04:33:55;;;;;;;5.95;4.90;;;;;;;31.24;28.36;100331.69;5032804;28;20436;-60
2022/06/01 04:36:21;;;;;;;5.65;5.00;;;;;;;32.35;26.92;100356.16;5032887;28;20044;-60
2022/06/01 04:38:47;;;;;;;6.65;5.30;;;;;;;32.38;26.71;100358.41;5032480;28;20033;-60
2022/06/01 04:41:13;;;;;;;7.80;5.28;;;;;;;33.04;25.77;100353.94;5030753;28;20079;-59
2022/06/01 04:43:38;;;;;;;5.88;4.65;;;;;;;33.38;25.38;100355.63;5031360;28;20038;-66
2022/06/01 04:46:04;;;;;;;6.82;4.90;;;;;;;32.94;25.88;100362.97;5030891;28;20049;-54
2022/06/01 04:48:29;;;;;;;6.63;5.13;;;;;;;33.11;25.90;100356.50;5032341;28;20041;-58
2022/06/01 04:50:57;;;;;;;6.70;5.18;;;;;;;32.81;25.82;100375.28;5032362;28;20029;-60
2022/06/01 04:53:23;;;;;;;9.57;5.38;;;;;;;32.08;26.71;100356.88;5032224;28;20098;-61
2022/06/01 04:55:49;;;;;;;8.70;4.95;;;;;;;31.05;28.07;100362.28;5032153;28;20021;-60
2022/06/01 04:58:14;;;;;;;6.53;5.38;;;;;;;31.21;28.28;100366.22;5031695;28;20057;-61
2022/06/01 05:00:41;;;;;;;5.78;5.18;;;;;;;32.44;26.63;100365.69;5031485;28;20033;-61
2022/06/01 05:03:08;;;;;;;5.35;4.50;;;;;;;32.81;25.91;100368.91;5031647;28;20036;-60
2022/06/01 05:05:36;;;;;;;8.05;4.68;;;;;;;33.53;25.44;100358.59;5030796;28;20025;-60
2022/06/01 05:08:01;;;;;;;8.73;4.82;;;;;;;34.45;23.55;100360.28;5031540;28;20041;-61
2022/06/01 05:10:28;;;;;;;10.52;4.43;;;;;;;34.16;23.72;100363.47;5030678;28;20444;-59
2022/06/01 05:12:53;;;;;;;9.30;4.60;;;;;;;34.34;23.34;100361.34;5027045;28;20038;-59
2022/06/01 05:15:19;;;;;;;7.22;3.97;;;;;;;35.09;22.56;100351.06;5021737;28;20107;-61
2022/06/01 05:17:45;;;;;;;6.28;4.63;;;;;;;35.80;21.35;100343.03;5031605;28;20045;-59
2022/06/01 05:20:13;;;;;;;4.88;4.05;;;;;;;36.93;20.20;100355.75;5029822;28;20044;-59
2022/06/01 05:22:39;;;;;;;4.78;4.22;;;;;;;38.28;18.43;100351.81;5031277;28;20400;-60
2022/06/01 05:25:06;;;;;;;5.30;4.20;;;;;;;39.08;17.62;100354.19;5031605;28;20043;-60
2022/06/01 05:27:31;;;;;;;5.00;3.95;;;;;;;40.08;16.89;100347.41;5031655;28;20029;-59
2022/06/01 05:29:56;;;;;;;6.05;3.90;;;;;;;40.35;15.84;100351.38;5031162;28;20460;-60
2022/06/01 05:32:22;;;;;;;7.70;3.92;;;;;;;40.66;16.31;100345.09;5031482;28;20030;-60
2022/06/01 05:34:48;;;;;;;7.03;4.13;;;;;;;41.55;15.61;100336.28;5031088;28;20025;-60
2022/06/01 05:37:13;;;;;;;5.68;4.40;;;;;;;42.25;14.43;100329.34;5030777;28;20034;-60
2022/06/01 05:39:40;;;;;;;6.00;4.65;;;;;;;42.09;14.42;100326.97;5031631;28;20036;-59
2022/06/01 05:42:06;;;;;;;4.95;4.22;;;;;;;42.35;14.79;100325.41;5030979;28;20374;-60
2022/06/01 05:44:31;;;;;;;5.93;4.15;;;;;;;43.00;13.81;100326.50;5030953;28;20126;-60
2022/06/01 05:46:59;;;;;;;5.25;4.55;;;;;;;43.55;13.24;100320.47;5030919;28;20026;-61
2022/06/01 05:49:25;;;;;;;5.30;4.30;;;;;;;43.71;12.81;100323.59;5031001;28;20029;-62
2022/06/01 05:51:51;;;;;;;5.78;4.47;;;;;;;44.11;12.73;100313.94;5030946;28;20456;-62
2022/06/01 05:54:16;;;;;;;5.28;4.45;;;;;;;44.67;12.28;100322.25;5030959;28;20048;-60
2022/06/01 05:56:42;;;;;;;6.00;4.55;;;;;;;44.55;12.25;100319.34;5031021;28;20033;-60
2022/06/01 05:59:07;;;;;;;5.47;4.90;;;;;;;44.03;12.66;100290.25;5031053;28;20056;-60
2022/06/01 06:01:32;;;;;;;8.23;4.50;;;;;;;44.42;12.45;100319.25;5031134;28;20413;-60
2022/06/01 06:03:58;;;;;;;9.57;4.40;;;;;;;44.77;12.10;100311.72;5045742;28;20107;-60
2022/06/01 06:06:24;;;;;;;7.32;4.03;;;;;;;44.88;12.11;100310.13;5030907;28;20029;-60
2022/06/01 06:08:56;;;;;;;6.05;4.20;;;;;;;46.00;11.96;100314.09;5031225;28;20458;-61
2022/06/01 06:11:28;;;;;;;9.00;4.57;;;;;;;47.09;11.18;100308.13;5030859;28;20033;-60
2022/06/01 06:13:54;;;;;;;4.57;4.18;;;;;;;47.33;10.10;100303.53;5029770;28;20428;-61
2022/06/01 06:16:20;;;;;;;7.38;4.45;;;;;;;47.75;10.05;100296.53;5030347;28;20156;-60
2022/06/01 06:18:46;;;;;;;8.13;4.32;;;;;;;47.35;10.01;100304.78;5028473;28;20034;-61
2022/06/01 06:21:12;;;;;;;11.80;5.07;;;;;;;47.45;10.13;100294.94;5026363;28;20062;-59
2022/06/01 06:23:38;;;;;;;10.45;4.53;;;;;;;47.94;9.61;100299.44;5029165;28;20129;-60
2022/06/01 06:26:03;;;;;;;6.75;5.00;;;;;;;48.48;8.77;100299.09;5030284;28;20036;-60
2022/06/01 06:28:29;;;;;;;8.00;4.80;;;;;;;48.70;9.08;100295.47;5030839;28;20449;-59
2022/06/01 06:30:55;;;;;;;10.63;4.30;;;;;;;49.69;8.31;100292.53;5030152;28;20095;-58
2022/06/01 06:33:21;;;;;;;4.53;4.10;;;;;;;50.17;7.66;100279.84;5028271;28;20080;-59
2022/06/01 06:36:01;;;;;;;4.90;4.18;;;;;;;51.10;7.70;100296.50;5026776;28;20034;-60
2022/06/01 06:38:28;;;;;;;9.90;4.80;;;;;;;50.47;7.90;100281.91;5029983;28;20057;-60
2022/06/01 06:40:56;;;;;;;6.75;4.30;;;;;;;50.39;7.60;100301.72;5029540;28;20485;-59
2022/06/01 06:43:23;;;;;;;4.88;3.63;;;;;;;50.64;7.06;100300.44;5029446;28;20041;-60
2022/06/01 06:45:56;;;;;;;3.58;3.33;;;;;;;50.45;7.49;100304.25;5029612;28;20473;-59
2022/06/01 06:48:22;;;;;;;5.15;3.78;;;;;;;50.23;7.79;100286.88;5028785;28;20038;-60
2022/06/01 06:50:47;;;;;;;3.90;3.50;;;;;;;49.77;7.65;100288.59;5024303;28;20044;-59
2022/06/01 06:53:13;;;;;;;4.82;3.35;;;;;;;49.32;8.02;100284.53;5029381;28;20508;-58
2022/06/01 06:55:39;;;;;;;4.15;3.75;;;;;;;50.11;7.81;100267.97;5029307;28;20055;-61
2022/06/01 06:58:08;;;;;;;4.93;3.90;;;;;;;51.05;7.19;100280.59;5029947;28;20053;-60
2022/06/01 07:00:33;;;;;;;4.43;3.13;;;;;;;50.17;7.21;100282.69;5020074;28;20017;-61
2022/06/01 07:02:59;;;;;;;6.68;3.30;;;;;;;50.31;7.11;100277.22;5024358;28;20040;-60
2022/06/01 07:08:08;;;;;;;4.47;3.50;;;;;;;51.25;6.98;100269.78;5026897;28;20037;-62
2022/06/01 07:10:34;;;;;;;3.50;3.17;;;;;;;50.92;6.23;100267.78;5017517;28;20041;-60
2022/06/01 07:12:59;;;;;;;4.65;3.45;;;;;;;51.21;6.73;100283.19;5020806;28;20036;-60
2022/06/01 07:15:25;;;;;;;5.53;3.10;;;;;;;51.96;5.85;100278.53;5027144;28;20047;-61
2022/06/01 07:17:51;;;;;;;4.75;3.80;;;;;;;52.55;5.57;100269.09;5027206;28;20341;-60
2022/06/01 07:20:17;;;;;;;5.50;3.72;;;;;;;52.84;5.53;100274.94;5027635;28;20131;-60
2022/06/01 07:22:43;;;;;;;5.72;3.88;;;;;;;52.11;5.67;100266.03;5026428;28;20041;-59
2022/06/01 07:25:08;;;;;;;4.93;3.60;;;;;;;52.01;6.03;100272.47;5027742;28;20021;-60
2022/06/01 07:27:36;;;;;;;4.28;3.88;;;;;;;52.46;6.28;100265.78;5029395;28;20461;-61
2022/06/01 07:30:06;;;;;;;4.30;3.80;;;;;;;53.25;5.63;100270.94;5024703;28;20061;-60
2022/06/01 07:32:31;;;;;;;4.88;4.18;;;;;;;54.06;5.36;100276.25;5032325;28;20030;-60
2022/06/01 07:34:57;;;;;;;5.03;4.13;;;;;;;54.56;4.88;100274.44;5031643;28;20025;-60
2022/06/01 07:43:06;;;;;;;5.78;4.28;;;;;;;53.81;4.61;100259.91;5030940;28;20048;-60
2022/06/01 07:45:36;;;;;;;4.60;4.25;;;;;;;54.88;4.67;100279.19;5030805;28;20403;-61
2022/06/01 07:48:04;;;;;;;5.10;4.13;;;;;;;55.06;4.22;100267.59;5029309;28;20056;-60
2022/06/01 07:50:30;;;;;;;4.47;4.07;;;;;;;55.05;3.88;100268.03;5029966;28;20033;-60
2022/06/01 07:52:55;;;;;;;6.13;4.13;;;;;;;53.91;3.98;100261.13;5028130;28;20044;-59
2022/06/01 07:55:21;;;;;;;4.88;4.40;;;;;;;53.55;4.43;100257.47;5032053;28;20029;-61
2022/06/01 07:57:46;;;;;;;5.00;4.50;;;;;;;53.63;5.07;100256.22;5032642;28;20437;-59
2022/06/01 08:00:12;;;;;;;4.90;4.22;;;;;;;53.75;5.04;100267.25;5032413;28;20308;-60
2022/06/01 08:02:38;;;;;;;5.47;4.45;;;;;;;53.02;4.80;100266.41;5032583;28;20481;-60
2022/06/01 08:05:06;;;;;;;5.75;3.40;;;;;;;51.94;4.99;100275.25;5032805;28;20033;-60
2022/06/01 08:07:33;;;;;;;6.10;3.67;;;;;;;49.88;6.08;100266.00;5013530;28;20029;-60
2022/06/01 08:09:59;;;;;;;4.10;3.05;;;;;;;48.22;6.95;100244.56;5013288;28;20197;-60
2022/06/01 08:15:11;;;;;;;2.90;2.65;;;;;;;45.67;8.45;100268.94;5032273;28;20049;-61
2022/06/01 08:17:37;;;;;;;4.20;2.35;;;;;;;44.03;9.64;100262.03;5033207;28;20533;-59
2022/06/01 08:20:03;;;;;;;2.85;2.25;;;;;;;42.35;10.72;100261.50;5030097;28;20106;-60
2022/06/01 08:22:29;;;;;;;5.00;2.08;;;;;;;41.11;11.82;100254.50;5033752;28;20052;-58
2022/06/01 08:24:54;;;;;;;4.70;2.33;;;;;;;40.27;12.90;100259.56;5032648;28;20104;-59
2022/06/01 08:27:20;;;;;;;3.80;2.05;;;;;;;39.61;13.22;100253.00;5032460;28;20530;-61
2022/06/01 08:29:45;;;;;;;2.40;2.20;;;;;;;38.94;13.11;100253.31;5032464;28;20033;-57
2022/06/01 08:32:11;;;;;;;5.20;2.15;;;;;;;38.11;14.06;100232.94;5031593;28;20030;-59
2022/06/01 08:34:38;;;;;;;6.07;2.20;;;;;;;37.81;14.63;100268.47;5032213;28;20029;-57
2022/06/01 08:37:04;;;;;;;5.13;2.40;;;;;;;36.77;15.28;100233.09;5032536;28;20468;-59
2022/06/01 08:39:30;;;;;;;2.60;2.25;;;;;;;36.09;16.60;100264.44;5030543;28;20044;-62
2022/06/01 08:41:58;;;;;;;5.03;2.75;;;;;;;35.16;16.49;100269.00;5029571;28;20029;-60
2022/06/01 08:44:37;;;;;;;4.85;2.38;;;;;;;34.35;17.47;100249.06;5031599;28;20038;-62
2022/06/01 08:47:11;;;;;;;5.22;2.50;;;;;;;33.70;18.21;100258.47;5022580;28;20017;-61
2022/06/01 08:49:39;;;;;;;3.50;2.75;;;;;;;32.91;19.46;100261.72;5032002;28;20025;-55
2022/06/01 08:52:05;;;;;;;3.05;2.00;;;;;;;32.56;19.74;100256.66;5030892;28;20424;-61
2022/06/01 08:54:32;;;;;;;4.18;1.92;;;;;;;32.31;19.96;100238.56;5030658;28;20049;-59
2022/06/01 08:57:15;;;;;;;5.55;2.20;;;;;;;32.58;19.41;100271.06;5026349;28;20057;-60
2022/06/01 09:00:05;;;;;;;3.20;1.90;;;;;;;32.48;19.66;100261.53;5032084;28;20087;-63
2022/06/01 09:02:54;;;;;;;4.90;2.60;;;;;;;32.57;19.41;100258.31;5031731;28;20270;-57
2022/06/01 09:05:38;;;;;;;3.65;2.10;;;;;;;32.84;19.62;100265.78;5031297;28;20064;-60
2022/06/01 09:08:13;;;;;;;;;;;;;;;33.59;18.54;100263.13;5031960;28;20107;-61
2022/06/01 09:10:55;;;;;;;2.97;1.95;;;;;;;33.52;19.48;100257.00;5032094;28;19960;-59
2022/06/01 09:13:24;;;;;;;4.68;1.77;;;;;;;33.74;18.88;100250.44;5030539;28;20404;-61
2022/06/01 09:15:56;;;;;;;4.53;2.28;;;;;;;33.73;18.96;100257.94;5031722;28;20377;-60
2022/06/01 09:18:26;;;;;;;2.40;2.20;;;;;;;33.45;19.39;100245.25;5032056;28;20218;-60
2022/06/01 09:23:36;;;;;;;6.47;2.83;;;;;;;33.27;19.16;100243.72;5031577;28;20033;-61
2022/06/01 09:26:03;;;;;;;3.40;2.47;;;;;;;33.14;19.45;100228.38;5031202;28;20037;-60
2022/06/01 09:28:35;;;;;;;3.85;2.20;;;;;;;33.26;19.59;100258.69;5031635;28;20025;-61
2022/06/01 09:31:22;;;;;;;4.38;2.58;;;;;;;33.22;19.29;100253.69;5031393;28;20040;-60
2022/06/01 09:33:48;;;;;;;6.22;2.78;;;;;;;32.70;19.45;100221.84;5030341;28;20042;-60
2022/06/01 09:36:53;;;;;;;6.75;2.80;;;;;;;33.12;19.09;100252.75;5030877;28;20179;-61
2022/06/01 09:39:20;;;;;;;4.78;2.65;;;;;;;32.92;20.40;100249.56;5031011;28;20025;-59
2022/06/01 09:41:46;;;;;;;4.57;2.70;;;;;;;32.67;20.06;100250.09;5031104;28;20421;-60
2022/06/01 09:44:18;;;;;;;7.10;3.28;;;;;;;32.48;20.29;100253.22;5030698;28;20493;-60
2022/06/01 09:46:47;;;;;;;7.60;3.17;;;;;;;32.42;20.71;100257.03;5029482;28;20026;-60
2022/06/01 09:49:32;;;;;;;7.38;3.30;;;;;;;32.22;20.62;100258.44;5028568;28;20175;-61
2022/06/01 09:52:00;;;;;;;;;;;;;;;32.64;19.67;100250.63;5026916;28;20034;-61
2022/06/01 09:54:30;;;;;;;3.53;2.70;;;;;;;31.64;21.91;100250.44;5029045;28;19917;-59
2022/06/01 09:56:56;;;;;;;6.45;3.25;;;;;;;31.32;22.40;100255.75;5027948;28;20124;-61
2022/06/01 10:08:11;;;;;;;5.72;2.53;;;;;;;30.35;22.86;100250.91;5026662;28;20099;-60
2022/06/01 10:10:38;;;;;;;4.80;2.70;;;;;;;30.16;23.29;100248.34;5027076;28;20124;-61
2022/06/01 10:13:06;;;;;;;5.85;3.30;;;;;;;30.23;22.87;100256.47;5027799;28;20039;-61
2022/06/01 10:15:42;;;;;;;7.72;3.20;;;;;;;30.41;22.44;100246.34;5029304;28;20050;-59
2022/06/01 10:18:10;;;;;;;5.03;3.30;;;;;;;30.22;22.81;100249.28;5030328;28;20037;-60
2022/06/01 10:20:47;;;;;;;6.05;3.63;;;;;;;30.22;23.12;100250.13;5030366;28;20030;-60
2022/06/01 10:23:24;;;;;;;6.10;3.40;;;;;;;30.13;23.36;100240.53;5029431;28;20123;-60
2022/06/01 10:25:55;;;;;;;5.25;3.42;;;;;;;30.17;23.44;100243.66;5028192;28;20056;-60
2022/06/01 10:28:31;;;;;;;5.25;3.50;;;;;;;30.21;22.82;100220.84;5030673;28;20435;-62
2022/06/01 10:31:01;;;;;;;7.63;3.50;;;;;;;30.14;23.44;100244.16;5030450;28;20037;-59
2022/06/01 10:33:34;;;;;;;7.53;3.75;;;;;;;30.14;23.35;100242.22;5030092;28;20087;-59
2022/06/01 10:36:04;;;;;;;6.15;3.70;;;;;;;30.04;23.70;100242.88;5027872;28;20079;-60
2022/06/01 10:38:38;;;;;;;7.70;3.58;;;;;;;29.92;24.29;100245.63;5029939;28;20075;-60
2022/06/01 10:41:16;;;;;;;8.05;3.95;;;;;;;29.93;23.99;100241.78;5030414;28;20036;-59
2022/06/01 10:43:54;;;;;;;5.65;3.92;;;;;;;29.67;24.23;100245.06;5029764;28;20462;-61
2022/06/01 10:46:23;;;;;;;6.35;3.92;;;;;;;29.29;25.57;100242.47;5029711;28;20492;-60
2022/06/01 10:49:02;;;;;;;7.50;3.67;;;;;;;29.27;24.86;100227.25;5029413;28;20059;-58
2022/06/01 10:51:32;;;;;;;6.78;3.50;;;;;;;29.78;24.78;100263.50;5027992;28;20034;-60
2022/06/01 10:54:07;;;;;;;6.05;3.45;;;;;;;30.08;24.17;100223.88;5029244;28;20037;-60
2022/06/01 10:56:33;;;;;;;5.75;3.40;;;;;;;30.19;24.53;100250.63;5029118;28;20030;-59
2022/06/01 10:59:03;;;;;;;6.20;3.40;;;;;;;30.29;24.44;100274.00;5030142;28;20087;-61
2022/06/01 11:01:32;;;;;;;7.90;2.97;;;;;;;30.19;23.62;100277.38;5030654;28;20470;-60
2022/06/01 11:04:15;;;;;;;4.45;3.25;;;;;;;30.06;24.31;100260.03;5029941;28;20031;-59
2022/06/01 11:06:43;;;;;;;5.78;3.00;;;;;;;29.51;25.92;100273.09;5032408;28;20033;-60
2022/06/01 11:09:32;;;;;;;7.28;4.68;;;;;;;29.40;26.70;100273.06;5034300;28;20338;-58
2022/06/01 11:12:26;;;;;;;6.35;3.60;;;;;;;29.17;27.01;100266.44;5033315;28;20029;-61
2022/06/01 11:15:20;;;;;;;7.88;3.90;;;;;;;28.90;27.94;100275.97;5033112;28;20432;-59
2022/06/01 11:18:01;;;;;;;9.82;4.25;;;;;;;28.41;29.63;100264.94;5034509;28;20038;-60
2022/06/01 11:20:45;;;;;;;4.60;3.80;;;;;;;28.13;29.58;100268.25;5032865;28;20037;-61
2022/06/01 11:23:26;;;;;;;5.57;2.67;;;;;;;27.88;30.12;100275.50;5033185;28;20120;-59
2022/06/01 11:25:58;;;;;;;5.68;2.80;;;;;;;27.52;31.98;100260.63;5033134;28;20075;-57
2022/06/01 11:28:38;;;;;;;4.28;2.15;;;;;;;27.61;30.97;100286.75;5033042;28;20052;-61
2022/06/01 11:31:14;;;;;;;2.22;1.85;;;;;;;27.31;31.97;100279.19;5033149;28;20022;-61
2022/06/01 11:33:44;;;;;;;2.83;2.10;;;;;;;27.04;32.79;100295.88;5030633;28;20041;-60
2022/06/01 11:36:51;;;;;;;2.13;1.65;;;;;;;26.97;31.58;100286.81;5032100;28;20481;-60
2022/06/01 11:39:44;;;;;;;3.03;1.80;;;;;;;26.88;32.41;100290.88;5024966;28;20474;-60
2022/06/01 11:42:27;;;;;;;2.67;1.80;;;;;;;26.76;32.67;100297.03;5033289;28;20378;-59
2022/06/01 11:44:59;;;;;;;4.07;2.08;;;;;;;26.57;33.72;100284.28;5033785;28;20091;-58
2022/06/01 11:47:30;;;;;;;3.25;2.00;;;;;;;26.31;34.31;100286.91;5013884;28;20116;-60
2022/06/01 11:50:30;;;;;;;7.85;2.35;;;;;;;26.64;33.41;100290.56;5023227;28;20033;-58
2022/06/01 11:52:56;;;;;;;3.95;2.67;;;;;;;26.80;34.31;100284.56;5032624;28;20045;-59
2022/06/01 11:55:33;;;;;;;4.43;2.47;;;;;;;26.87;34.03;100294.69;5032808;28;20044;-61
2022/06/01 11:58:29;;;;;;;3.22;2.20;;;;;;;27.02;33.06;100297.13;5033040;28;20044;-61
2022/06/01 12:01:10;;;;;;;5.22;3.25;;;;;;;26.78;34.07;100300.44;5032326;28;20476;-62
2022/06/01 12:03:40;;;;;;;4.13;2.42;;;;;;;26.49;35.52;100288.94;5032963;28;20040;-62
2022/06/01 12:06:34;;;;;;;4.00;2.63;;;;;;;26.46;34.90;100292.13;5023317;28;20041;-61
2022/06/01 12:09:03;;;;;;;4.45;2.20;;;;;;;26.19;36.06;100300.47;5031678;28;20029;-61
2022/06/01 12:11:43;;;;;;;6.13;2.50;;;;;;;26.29;36.04;100313.72;5032525;28;20037;-61
2022/06/01 12:14:33;;;;;;;4.70;2.53;;;;;;;26.42;35.69;100307.34;5030909;28;20512;-60
2022/06/01 12:17:23;;;;;;;4.05;2.20;;;;;;;26.49;35.85;100299.91;5012992;28;20511;-60
2022/06/01 12:20:10;;;;;;;6.32;2.30;;;;;;;26.69;35.50;100296.25;5021151;28;20038;-61
2022/06/01 12:28:51;;;;;;;4.32;2.40;;;;;;;27.52;34.25;100307.38;5031768;28;20417;-62
2022/06/01 12:31:26;;;;;;;4.53;2.30;;;;;;;27.33;34.64;100307.28;5032502;28;20026;-61
2022/06/01 12:34:03;;;;;;;7.80;2.50;;;;;;;27.11;35.03;100298.53;5032322;28;20128;-60
2022/06/01 12:36:38;;;;;;;6.13;2.33;;;;;;;26.94;35.58;100307.34;5031567;28;20072;-63
2022/06/01 12:39:27;;;;;;;4.03;2.27;;;;;;;26.96;35.33;100317.25;5031647;28;20030;-61
2022/06/01 12:42:01;;;;;;;3.03;1.90;;;;;;;26.43;35.74;100284.31;5031526;28;20301;-60
2022/06/01 12:44:26;;;;;;;4.93;2.08;;;;;;;26.31;36.46;100313.53;5032319;28;20493;-60
2022/06/01 12:46:52;;;;;;;3.50;2.03;;;;;;;26.22;36.79;100300.03;5031008;28;20079;-60
2022/06/01 12:49:33;;;;;;;6.22;2.20;;;;;;;26.40;36.00;100305.88;5031954;28;20374;-61
2022/06/01 12:52:06;;;;;;;6.70;2.13;;;;;;;26.32;36.36;100304.22;5031664;28;20045;-60
2022/06/01 12:54:51;;;;;;;2.53;1.90;;;;;;;26.51;35.83;100300.53;5031738;28;20033;-61
2022/06/01 12:57:47;;;;;;;4.63;2.15;;;;;;;26.68;35.50;100313.78;5032307;28;20056;-61
2022/06/01 13:00:19;;;;;;;6.78;2.05;;;;;;;26.61;35.23;100311.06;5031245;28;20037;-61
2022/06/01 13:02:45;;;;;;;3.50;1.95;;;;;;;26.36;34.73;100314.53;5032313;28;20038;-60
2022/06/01 13:05:36;;;;;;;6.45;2.00;;;;;;;26.39;34.44;100312.41;5031623;28;20033;-61
2022/06/01 13:08:04;;;;;;;3.75;1.90;;;;;;;25.92;35.42;100313.34;5028517;28;20041;-60
2022/06/01 13:10:35;;;;;;;5.60;1.98;;;;;;;25.96;35.63;100339.34;5031676;28;20120;-60
2022/06/01 13:13:29;;;;;;;3.45;2.20;;;;;;;25.96;35.66;100324.75;5031239;28;20026;-60
2022/06/01 13:16:00;;;;;;;5.95;2.25;;;;;;;25.58;36.97;100329.88;5029330;28;20045;-62
2022/06/01 13:18:45;;;;;;;2.78;2.10;;;;;;;25.55;36.14;100326.69;5031424;28;20049;-61
2022/06/01 13:21:18;;;;;;;3.67;2.20;;;;;;;25.47;36.73;100331.34;5061733;28;20037;-60
2022/06/01 13:23:54;;;;;;;2.35;1.65;;;;;;;25.34;36.42;100334.88;5010767;28;20038;-61
2022/06/01 13:26:44;;;;;;;4.03;1.85;;;;;;;25.38;36.12;100318.84;5028505;28;20481;-59
2022/06/01 13:29:17;;;;;;;3.25;1.95;;;;;;;25.20;36.48;100323.06;5030698;28;20041;-61
2022/06/01 13:31:47;;;;;;;6.93;2.00;;;;;;;25.16;36.23;100320.94;5031511;28;20483;-60
2022/06/01 13:34:29;;;;;;;4.13;1.90;;;;;;;25.17;36.33;100317.97;5031139;28;20025;-60
2022/06/01 13:37:15;;;;;;;5.25;2.17;;;;;;;25.14;36.41;100314.84;5021871;28;20042;-62
2022/06/01 13:39:52;;;;;;;5.53;2.33;;;;;;;25.11;36.42;100310.59;5011819;28;20133;-61
2022/06/01 13:42:49;;;;;;;8.60;2.58;;;;;;;25.26;36.09;100317.78;5011708;28;20037;-60
2022/06/01 13:45:18;;;;;;;8.15;2.42;;;;;;;25.11;37.09;100310.59;5059275;28;20088;-61
2022/06/01 13:47:48;;;;;;;7.53;2.92;;;;;;;24.97;37.72;100309.72;5030724;28;20120;-61
2022/06/01 13:50:14;;;;;;;8.98;2.90;;;;;;;24.86;37.64;100297.50;5031245;28;20118;-61
2022/06/01 13:52:42;;;;;;;6.93;2.80;;;;;;;24.86;37.71;100297.50;5030898;28;20490;-60
2022/06/01 13:55:16;;;;;;;5.32;3.03;;;;;;;24.97;37.31;100282.34;5029804;28;20424;-62
2022/06/01 13:57:51;;;;;;;6.63;3.13;;;;;;;25.00;37.34;100292.06;5030820;28;20034;-58
2022/06/01 14:00:25;;;;;;;6.80;3.38;;;;;;;25.02;37.04;100299.00;5030018;28;20437;-60
2022/06/01 14:03:10;;;;;;;3.73;2.73;;;;;;;25.04;36.75;100309.75;5030570;28;20106;-60
2022/06/01 14:05:48;;;;;;;5.90;2.80;;;;;;;24.98;36.75;100281.28;5030171;28;20038;-58
2022/06/01 14:08:26;;;;;;;7.70;3.08;;;;;;;24.46;37.19;100235.22;5030189;28;20045;-59
2022/06/01 14:10:53;;;;;;;4.55;3.15;;;;;;;24.58;37.82;100300.31;5030601;28;20224;-61
2022/06/01 14:13:22;;;;;;;6.50;2.55;;;;;;;24.44;38.29;100285.72;5030433;28;20060;-63
2022/06/01 14:15:49;;;;;;;4.07;2.95;;;;;;;24.59;38.17;100299.25;5030363;28;20126;-61
2022/06/01 14:18:35;;;;;;;6.40;3.00;;;;;;;24.83;37.38;100294.31;5030779;28;20116;-61
2022/06/01 14:21:02;;;;;;;4.30;3.05;;;;;;;24.60;38.62;100299.06;5030119;28;20053;-60
2022/06/01 14:23:28;;;;;;;6.82;3.15;;;;;;;24.43;38.87;100276.69;5029547;28;20108;-64
2022/06/01 14:28:41;;;;;;;7.97;3.45;;;;;;;24.48;38.76;100287.03;5029377;28;20072;-62
2022/06/01 14:31:09;;;;;;;3.95;2.90;;;;;;;24.30;39.50;100293.03;5028701;28;20103;-62
2022/06/01 14:33:36;;;;;;;5.22;3.20;;;;;;;24.13;40.05;100287.06;5027753;28;20465;-58
2022/06/01 14:36:01;;;;;;;5.82;3.08;;;;;;;23.93;40.81;100277.69;5030034;28;20037;-59
2022/06/01 14:38:27;;;;;;;5.63;2.63;;;;;;;23.90;41.29;100283.56;5029685;28;20029;-59
2022/06/01 14:40:55;;;;;;;6.43;2.90;;;;;;;23.90;41.18;100283.56;5028679;28;20030;-62
2022/06/01 14:43:25;;;;;;;5.95;2.67;;;;;;;23.99;40.99;100292.41;5028660;28;20091;-62
2022/06/01 14:45:51;;;;;;;10.57;2.40;;;;;;;24.00;40.95;100276.88;5029907;28;20075;-60
2022/06/01 14:48:16;;;;;;;6.20;2.53;;;;;;;24.04;40.54;100273.56;5030493;28;20393;-60
2022/06/01 14:50:42;;;;;;;4.45;2.35;;;;;;;23.94;40.29;100283.97;5029688;28;20053;-62
2022/06/01 14:53:26;;;;;;;4.60;2.00;;;;;;;24.07;38.30;100273.16;5029148;28;20479;-56
2022/06/01 14:55:53;;;;;;;6.57;2.30;;;;;;;23.82;38.70;100263.72;5028279;28;20029;-57
2022/06/01 14:58:19;;;;;;;3.45;2.10;;;;;;;23.97;38.58;100291.78;5030110;28;20034;-58
2022/06/01 15:00:50;;;;;;;3.65;1.75;;;;;;;24.01;38.51;100284.03;5029744;28;20473;-58
2022/06/01 15:03:27;;;;;;;3.13;1.90;;;;;;;24.03;38.87;100282.81;5028602;28;20037;-57
2022/06/01 15:05:53;;;;;;;4.28;2.00;;;;;;;23.88;39.88;100280.19;5029739;28;20040;-56
2022/06/01 15:08:18;;;;;;;6.32;2.28;;;;;;;23.83;40.76;100287.28;5029066;28;20370;-58
2022/06/01 15:10:44;;;;;;;6.07;2.45;;;;;;;23.76;41.12;100276.31;5029720;28;20054;-58
2022/06/01 15:13:09;;;;;;;7.10;2.95;;;;;;;23.68;41.63;100279.19;5029495;28;20026;-59